Time;durP1;ratioP1;P1;durP2;ratioP2;P2;SDS_P1;SDS_P2;PMS_P1;PMS_P2;Temp;Humidity;BMP_temperature;BMP_pressure;BME280_temperature;BME280_humidity;BME280_pressure;Samples;Min_cycle;Max_cycle;Signal;HPM_P1;HPM_P2
2024/04/23 00:02:20;;;;;;;52.55;29.73;;;204.90;2252.80;;;;;;5449092;26;20402;-72
2024/04/23 00:04:46;;;;;;;57.83;34.97;;;204.90;2252.80;;;;;;5447728;26;19998;-71
2024/04/23 00:07:11;;;;;;;101.30;57.17;;;204.90;2252.80;;;;;;5449260;26;19991;-71
2024/04/23 00:09:37;;;;;;;106.07;60.47;;;204.90;2252.80;;;;;;5447507;26;20010;-72
2024/04/23 00:12:03;;;;;;;131.35;77.65;;;204.90;2252.80;;;;;;5449049;26;20017;-73
2024/04/23 00:14:29;;;;;;;67.82;46.03;;;204.90;2252.80;;;;;;5448108;26;20006;-72
2024/04/23 00:17:02;;;;;;;54.08;35.58;;;204.80;2252.80;;;;;;5448403;26;20211;-73
2024/04/23 00:19:27;;;;;;;65.93;43.78;;;180.10;2252.80;;;;;;5448419;26;19995;-72
2024/04/23 00:21:54;;;;;;;53.53;33.97;;;204.80;2252.80;;;;;;5448543;26;20013;-73
2024/04/23 00:24:19;;;;;;;27.35;20.83;;;180.10;2252.80;;;;;;5448651;26;20500;-76
2024/04/23 00:27:12;;;;;;;25.27;18.73;;;180.10;2252.80;;;;;;5447704;26;20009;-72
2024/04/23 00:29:37;;;;;;;26.48;18.33;;;204.80;2252.80;;;;;;5429070;26;19999;-73
2024/04/23 00:32:03;;;;;;;25.17;19.88;;;180.10;2252.80;;;;;;5438792;26;19998;-71
2024/04/23 00:34:29;;;;;;;19.00;16.15;;;180.10;2252.80;;;;;;5448630;26;19995;-72
2024/04/23 00:36:57;;;;;;;28.38;20.85;;;180.10;2252.80;;;;;;5447673;26;19998;-72
2024/04/23 00:39:24;;;;;;;50.65;30.88;;;180.00;2252.80;;;;;;5449318;26;19999;-73
2024/04/23 00:41:49;;;;;;;77.57;46.30;;;179.90;2252.80;;;;;;5448009;26;19999;-72
2024/04/23 00:44:16;;;;;;;64.55;38.67;;;180.00;2252.80;;;;;;5448341;26;19995;-73
2024/04/23 00:46:42;;;;;;;98.15;54.47;;;179.90;2252.80;;;;;;5448151;26;20003;-72
2024/04/23 00:49:13;;;;;;;68.93;40.05;;;180.00;2252.80;;;;;;5448419;26;19994;-73
2024/04/23 00:51:41;;;;;;;47.63;31.83;;;179.90;2252.80;;;;;;5447173;26;20441;-72
2024/04/23 00:54:10;;;;;;;32.05;23.20;;;180.00;2252.80;;;;;;5448246;26;20076;-73
2024/04/23 00:56:37;;;;;;;22.02;17.00;;;180.00;2252.80;;;;;;5447250;26;20525;-72
2024/04/23 00:59:04;;;;;;;20.00;15.73;;;179.90;2252.80;;;;;;5448204;26;19999;-75
2024/04/23 01:01:35;;;;;;;18.05;14.65;;;179.80;2252.80;;;;;;5445569;26;20398;-72
2024/04/23 01:04:02;;;;;;;19.98;16.15;;;179.70;2252.80;;;;;;5448458;26;20488;-73
2024/04/23 01:06:29;;;;;;;17.08;14.48;;;179.80;2252.80;;;;;;5447079;26;19999;-72
2024/04/23 01:08:55;;;;;;;21.25;16.73;;;179.70;2252.80;;;;;;5448408;26;20488;-73
2024/04/23 01:11:20;;;;;;;20.10;15.70;;;179.60;2252.80;;;;;;5447925;26;20003;-72
2024/04/23 01:13:46;;;;;;;20.65;15.32;;;179.50;2252.80;;;;;;5447656;26;20079;-70
2024/04/23 01:16:13;;;;;;;18.40;14.40;;;179.30;2252.80;;;;;;5447738;26;20009;-72
2024/04/23 01:18:40;;;;;;;21.85;17.10;;;179.20;2252.80;;;;;;5447945;26;20437;-71
2024/04/23 01:21:09;;;;;;;30.88;22.30;;;179.40;2252.80;;;;;;5447230;26;20003;-71
2024/04/23 01:23:45;;;;;;;18.95;15.25;;;179.50;2252.80;;;;;;5447644;26;20003;-70
2024/04/23 01:26:12;;;;;;;21.17;16.50;;;179.50;2252.80;;;;;;5447423;26;19995;-70
2024/04/23 01:28:40;;;;;;;17.92;14.05;;;179.60;2252.80;;;;;;5447017;26;20034;-70
2024/04/23 01:31:08;;;;;;;18.92;13.75;;;179.60;2252.80;;;;;;5446911;26;20348;-70
2024/04/23 01:33:37;;;;;;;18.05;13.80;;;179.70;2252.80;;;;;;5447749;26;20003;-74
2024/04/23 01:36:05;;;;;;;19.17;13.93;;;179.70;2252.80;;;;;;5447458;26;20007;-70
2024/04/23 01:38:32;;;;;;;22.88;16.80;;;179.50;2252.80;;;;;;5447975;26;20009;-71
2024/04/23 01:40:59;;;;;;;20.50;15.48;;;179.20;2252.80;;;;;;5446971;26;20003;-70
2024/04/23 01:43:26;;;;;;;21.20;16.15;;;154.50;2252.80;;;;;;5446869;26;20095;-72
2024/04/23 01:45:54;;;;;;;21.90;16.83;;;154.20;2252.80;;;;;;5423772;26;20010;-70
2024/04/23 01:48:20;;;;;;;20.92;17.45;;;153.80;2252.80;;;;;;5446806;26;20003;-77
2024/04/23 01:50:46;;;;;;;21.25;16.50;;;154.00;2252.80;;;;;;5447127;26;20354;-70
2024/04/23 01:53:12;;;;;;;20.98;16.60;;;154.10;2252.80;;;;;;5446590;26;19999;-74
2024/04/23 01:55:38;;;;;;;28.17;18.17;;;154.20;2252.80;;;;;;5446921;26;19999;-71
2024/04/23 01:58:04;;;;;;;21.52;16.02;;;154.40;2252.80;;;;;;5445876;26;20018;-75
2024/04/23 02:00:34;;;;;;;17.77;15.05;;;154.30;2252.80;;;;;;5447264;26;20009;-70
2024/04/23 02:03:01;;;;;;;16.92;13.88;;;154.40;2252.80;;;;;;5446049;26;20007;-70
2024/04/23 02:05:27;;;;;;;20.20;15.05;;;154.50;2252.80;;;;;;5446798;26;19998;-70
2024/04/23 02:07:54;;;;;;;24.95;18.38;;;179.20;2252.80;;;;;;5446485;26;20010;-70
2024/04/23 02:10:21;;;;;;;20.10;15.15;;;179.30;2252.80;;;;;;5447044;26;19999;-74
2024/04/23 02:12:47;;;;;;;23.25;16.80;;;179.30;2252.80;;;;;;5445830;26;20017;-71
2024/04/23 02:15:12;;;;;;;20.10;15.63;;;179.50;2252.80;;;;;;5447390;26;20440;-70
2024/04/23 02:17:38;;;;;;;21.33;15.95;;;179.60;2252.80;;;;;;5445753;26;20002;-70
2024/04/23 02:20:05;;;;;;;19.83;14.52;;;179.50;2252.80;;;;;;5447228;26;20014;-70
2024/04/23 02:22:31;;;;;;;17.88;13.93;;;179.60;2252.80;;;;;;5446975;26;20010;-75
2024/04/23 02:24:57;;;;;;;19.10;13.73;;;179.50;2252.80;;;;;;5447207;26;20332;-70
2024/04/23 02:27:23;;;;;;;17.75;14.15;;;179.40;2252.80;;;;;;5446640;26;20017;-72
2024/04/23 02:29:49;;;;;;;17.38;13.63;;;179.50;2252.80;;;;;;5447214;26;20467;-71
2024/04/23 02:32:14;;;;;;;20.33;12.80;;;179.50;2252.80;;;;;;5446698;26;20049;-70
2024/04/23 02:34:40;;;;;;;18.55;14.13;;;179.50;2252.80;;;;;;5447335;26;20441;-70
2024/04/23 02:37:06;;;;;;;22.80;16.63;;;179.40;2252.80;;;;;;5445727;26;20007;-69
2024/04/23 02:39:32;;;;;;;19.35;16.83;;;154.50;2252.80;;;;;;5446714;26;19999;-73
2024/04/23 02:41:58;;;;;;;17.73;15.32;;;154.40;2252.80;;;;;;5445535;26;20003;-70
2024/04/23 02:44:25;;;;;;;18.15;14.75;;;154.20;2252.80;;;;;;5446863;26;20398;-70
2024/04/23 02:46:51;;;;;;;20.42;16.40;;;154.20;2252.80;;;;;;5445580;26;20013;-70
2024/04/23 02:49:17;;;;;;;21.20;14.48;;;154.20;2252.80;;;;;;5446733;26;19998;-73
2024/04/23 02:51:50;;;;;;;19.50;15.55;;;154.10;2252.80;;;;;;5445951;26;20072;-74
2024/04/23 02:54:16;;;;;;;16.92;15.00;;;154.10;2252.80;;;;;;5446378;26;20444;-70
2024/04/23 02:56:43;;;;;;;17.13;15.18;;;154.10;2252.80;;;;;;5445592;26;20035;-69
2024/04/23 02:59:09;;;;;;;16.65;13.77;;;154.20;2252.80;;;;;;5446331;26;19999;-70
2024/04/23 03:01:35;;;;;;;18.70;14.50;;;154.30;2252.80;;;;;;5445833;26;20165;-70
2024/04/23 03:04:00;;;;;;;20.00;15.50;;;154.20;2252.80;;;;;;5446469;26;20003;-69
2024/04/23 03:06:26;;;;;;;18.83;14.73;;;154.10;2252.80;;;;;;5445040;26;20006;-69
2024/04/23 03:08:52;;;;;;;22.42;15.43;;;154.20;2252.80;;;;;;5446351;26;20040;-70
2024/04/23 03:11:18;;;;;;;18.08;13.98;;;154.50;2252.80;;;;;;5445492;26;20007;-76
2024/04/23 03:13:43;;;;;;;20.58;15.55;;;154.50;2252.80;;;;;;5446254;26;20007;-70
2024/04/23 03:16:09;;;;;;;18.75;15.82;;;154.40;2252.80;;;;;;5413363;26;19991;-70
2024/04/23 03:18:35;;;;;;;20.17;16.25;;;179.20;2252.80;;;;;;5445995;26;19995;-71
2024/04/23 03:21:01;;;;;;;21.05;17.38;;;179.30;2252.80;;;;;;5445672;26;20006;-69
2024/04/23 03:23:27;;;;;;;19.33;15.60;;;179.50;2252.80;;;;;;5446968;26;20322;-72
2024/04/23 03:25:52;;;;;;;23.58;17.90;;;179.60;2252.80;;;;;;5448930;26;19990;-72
2024/04/23 03:28:18;;;;;;;20.85;14.98;;;179.40;2252.80;;;;;;5448996;26;20364;-70
2024/04/23 03:30:44;;;;;;;18.20;14.07;;;179.30;2252.80;;;;;;5448560;26;20006;-71
2024/04/23 03:33:10;;;;;;;17.90;14.50;;;179.40;2252.80;;;;;;5449136;26;19998;-71
2024/04/23 03:35:36;;;;;;;15.57;13.65;;;179.50;2252.80;;;;;;5448919;26;20018;-72
2024/04/23 03:38:01;;;;;;;18.27;13.43;;;179.30;2252.80;;;;;;5449552;26;20034;-71
2024/04/23 03:40:27;;;;;;;16.60;13.43;;;179.20;2252.80;;;;;;5447740;26;20452;-71
2024/04/23 03:42:53;;;;;;;21.45;14.65;;;154.40;2252.80;;;;;;5449547;26;20003;-71
2024/04/23 03:45:19;;;;;;;19.80;15.30;;;154.30;2252.80;;;;;;5448214;26;20031;-71
2024/04/23 03:47:45;;;;;;;22.55;15.85;;;154.40;2252.80;;;;;;5449319;26;20065;-71
2024/04/23 03:50:10;;;;;;;23.40;15.10;;;154.50;2252.80;;;;;;5448922;26;19998;-71
2024/04/23 03:52:36;;;;;;;19.45;14.45;;;154.40;2252.80;;;;;;5449110;26;20302;-71
2024/04/23 03:55:02;;;;;;;18.38;16.05;;;154.40;2252.80;;;;;;5448649;26;20005;-71
2024/04/23 03:57:28;;;;;;;18.42;14.02;;;154.30;2252.80;;;;;;5448697;26;20071;-70
2024/04/23 03:59:54;;;;;;;21.38;14.65;;;154.30;2252.80;;;;;;5448288;26;20006;-71
2024/04/23 04:07:49;;;;;;;22.60;16.42;;;154.50;2252.80;;;;;;5449316;26;20433;-71
2024/04/23 04:10:15;;;;;;;20.13;14.63;;;154.40;2252.80;;;;;;5448598;26;20010;-71
2024/04/23 04:12:41;;;;;;;15.80;14.00;;;179.30;2252.80;;;;;;5448832;26;20088;-71
2024/04/23 04:15:07;;;;;;;19.75;15.05;;;179.40;2252.80;;;;;;5447585;26;20446;-72
2024/04/23 04:17:33;;;;;;;19.67;14.68;;;179.30;2252.80;;;;;;5448299;26;20002;-71
2024/04/23 04:19:58;;;;;;;21.13;15.32;;;179.30;2252.80;;;;;;5448496;26;20035;-71
2024/04/23 04:22:24;;;;;;;20.38;16.02;;;179.30;2252.80;;;;;;5449056;26;20002;-71
2024/04/23 04:24:50;;;;;;;20.75;14.90;;;179.60;2252.80;;;;;;5449342;26;20447;-70
2024/04/23 04:27:16;;;;;;;20.17;15.27;;;179.60;2252.80;;;;;;5447386;26;20017;-71
2024/04/23 04:29:42;;;;;;;20.10;14.25;;;179.70;2252.80;;;;;;5448540;26;20075;-75
2024/04/23 04:32:08;;;;;;;20.02;14.20;;;179.70;2252.80;;;;;;5447163;26;20013;-71
2024/04/23 04:34:34;;;;;;;20.15;13.95;;;179.70;2252.80;;;;;;5447293;26;20035;-71
2024/04/23 04:37:00;;;;;;;18.23;14.02;;;179.70;2252.80;;;;;;5447827;26;20018;-71
2024/04/23 04:39:26;;;;;;;17.40;13.63;;;179.90;2252.80;;;;;;5448403;26;20014;-71
2024/04/23 04:41:52;;;;;;;19.02;14.82;;;180.10;2252.80;;;;;;5448237;26;20014;-71
2024/04/23 04:44:18;;;;;;;18.38;14.25;;;204.90;2252.80;;;;;;5448300;26;20013;-71
2024/04/23 04:46:43;;;;;;;18.60;13.95;;;205.10;2252.80;;;;;;5448861;26;20535;-72
2024/04/23 04:49:09;;;;;;;16.95;12.75;;;205.20;2252.80;;;;;;5448953;26;20075;-70
2024/04/23 04:51:35;;;;;;;26.63;21.00;;;205.40;2252.80;;;;;;5448173;26;20040;-71
2024/04/23 04:54:01;;;;;;;32.22;23.77;;;205.60;2252.80;;;;;;5448605;26;20014;-70
2024/04/23 04:56:27;;;;;;;45.90;33.60;;;205.70;2252.80;;;;;;5447783;26;20003;-71
2024/04/23 04:58:53;;;;;;;33.45;26.08;;;205.70;2252.80;;;;;;5448093;26;19999;-71
2024/04/23 05:01:19;;;;;;;33.33;29.38;;;230.50;2252.80;;;;;;5447558;26;20079;-70
2024/04/23 05:03:45;;;;;;;32.58;27.67;;;230.80;2252.80;;;;;;5448086;26;20043;-72
2024/04/23 05:06:11;;;;;;;17.88;15.60;;;230.90;2252.80;;;;;;5447119;26;20002;-71
2024/04/23 05:08:36;;;;;;;20.25;17.27;;;230.90;2252.80;;;;;;5447765;26;20072;-76
2024/04/23 05:11:02;;;;;;;20.65;15.02;;;231.10;2252.80;;;;;;5447170;26;19998;-70
2024/04/23 05:13:28;;;;;;;50.83;32.38;;;231.30;2252.80;;;;;;5447618;26;19995;-71
2024/04/23 05:15:54;;;;;;;79.88;54.08;;;256.00;2252.80;;;;;;5448099;26;19999;-71
2024/04/23 05:18:20;;;;;;;44.35;31.60;;;256.20;2252.80;;;;;;5447981;26;20035;-71
2024/04/23 05:20:46;;;;;;;29.23;21.70;;;256.30;2252.80;;;;;;5447282;26;20002;-71
2024/04/23 05:23:11;;;;;;;25.45;20.85;;;256.50;2252.80;;;;;;5448354;26;20003;-71
2024/04/23 05:25:37;;;;;;;28.67;21.33;;;256.90;2252.80;;;;;;5447253;26;20068;-70
2024/04/23 05:28:03;;;;;;;25.35;18.80;;;281.90;2278.40;;;;;;5448685;26;20003;-71
2024/04/23 05:33:15;;;;;;;23.13;17.42;;;307.90;2304.00;;;;;;5373246;26;20000;-70
2024/04/23 05:35:41;;;;;;;19.33;14.40;;;307.80;2304.00;;;;;;5372533;26;20007;-73
2024/04/23 05:38:07;;;;;;;19.08;17.17;;;307.50;2304.00;;;;;;5372636;26;19997;-71
2024/04/23 05:40:32;;;;;;;19.23;16.02;;;307.40;2304.00;;;;;;5373784;26;20051;-71
2024/04/23 05:42:58;;;;;;;21.48;16.17;;;307.40;2304.00;;;;;;5372517;26;20014;-71
2024/04/23 05:45:24;;;;;;;19.77;15.98;;;307.30;2304.00;;;;;;5372530;26;20000;-71
2024/04/23 05:48:27;;;;;;;19.13;15.57;;;307.20;2304.00;;;;;;5373333;26;20012;-71
2024/04/23 05:51:30;;;;;;;19.90;16.20;;;282.50;2278.40;;;;;;5353931;26;19996;-71
2024/04/23 05:54:32;;;;;;;20.08;16.45;;;282.40;2278.40;;;;;;5371759;26;20046;-72
2024/04/23 05:56:58;;;;;;;21.58;17.65;;;282.40;2278.40;;;;;;5372266;26;19996;-70
2024/04/23 05:59:24;;;;;;;23.58;18.60;;;282.50;2278.40;;;;;;5371988;26;19992;-71
2024/04/23 06:01:50;;;;;;;20.33;17.15;;;282.50;2278.40;;;;;;5373286;26;20371;-70
2024/04/23 06:04:15;;;;;;;20.63;17.67;;;282.50;2278.40;;;;;;5372127;26;20008;-71
2024/04/23 06:06:41;;;;;;;34.50;18.13;;;307.20;2304.00;;;;;;5373122;26;20007;-70
2024/04/23 06:09:07;;;;;;;21.35;17.55;;;307.30;2304.00;;;;;;5371957;26;19996;-71
2024/04/23 06:11:33;;;;;;;22.77;19.20;;;307.50;2304.00;;;;;;5443247;26;19998;-70
2024/04/23 06:14:09;;;;;;;26.55;20.63;;;307.70;2304.00;;;;;;5446216;26;20464;-71
2024/04/23 06:16:34;;;;;;;21.00;18.70;;;307.80;2304.00;;;;;;5436544;26;19999;-71
2024/04/23 06:19:00;;;;;;;24.58;17.92;;;307.80;2304.00;;;;;;5433220;26;20451;-70
2024/04/23 06:21:26;;;;;;;23.27;19.55;;;307.80;2304.00;;;;;;5447413;26;20379;-73
2024/04/23 06:23:52;;;;;;;25.20;21.05;;;307.90;2304.00;;;;;;5446711;26;20007;-71
2024/04/23 06:26:18;;;;;;;28.17;21.52;;;307.90;2304.00;;;;;;5446300;26;20014;-71
2024/04/23 06:28:44;;;;;;;34.55;23.60;;;308.00;2304.00;;;;;;5445884;26;20444;-73
2024/04/23 06:31:10;;;;;;;23.95;21.23;;;308.10;2304.00;;;;;;5447601;26;20460;-73
2024/04/23 06:33:36;;;;;;;26.77;21.70;;;333.20;2329.60;;;;;;5446244;26;20512;-74
2024/04/23 06:36:02;;;;;;;24.73;17.75;;;333.40;2329.60;;;;;;5415038;26;19995;-73
2024/04/23 06:38:28;;;;;;;23.40;20.33;;;358.40;2329.60;;;;;;5446038;26;20009;-76
2024/04/23 06:40:54;;;;;;;21.85;17.98;;;358.80;2329.60;;;;;;5446349;26;20010;-73
2024/04/23 06:43:20;;;;;;;22.15;18.10;;;359.10;2329.60;;;;;;5415480;26;19999;-74
2024/04/23 06:45:46;;;;;;;24.42;19.25;;;384.10;2329.60;;;;;;5447198;26;20089;-75
2024/04/23 06:48:15;;;;;;;25.33;21.15;;;384.60;2329.60;;;;;;5447280;26;20014;-75
2024/04/23 06:50:42;;;;;;;22.75;17.98;;;384.80;2329.60;;;;;;5447772;26;20010;-76
2024/04/23 06:53:08;;;;;;;24.98;18.85;;;409.80;2355.20;;;;;;5446387;26;20074;-76
2024/04/23 06:55:34;;;;;;;22.65;19.98;;;435.40;2355.20;;;;;;5446499;26;20018;-75
2024/04/23 06:57:59;;;;;;;25.70;23.00;;;435.70;2278.40;;;;;;5445660;26;19999;-77
2024/04/23 07:00:25;;;;;;;24.85;19.92;;;436.10;2227.20;;;;;;5449157;26;20022;-75
2024/04/23 07:02:51;;;;;;;22.45;20.05;;;461.30;2201.60;;;;;;5449454;26;20010;-77
2024/04/23 07:05:17;;;;;;;21.48;18.48;;;487.00;2073.60;;;;;;5449839;26;20002;-75
2024/04/23 07:07:43;;;;;;;19.90;16.45;;;487.20;1996.80;;;;;;5424967;26;20022;-77
2024/04/23 07:10:08;;;;;;;21.23;16.02;;;512.10;1996.80;;;;;;5449449;26;20085;-77
2024/04/23 07:12:34;;;;;;;16.10;14.50;;;512.60;1971.20;;;;;;5448508;26;20428;-76
2024/04/23 07:15:00;;;;;;;19.02;16.83;;;538.20;1894.40;;;;;;5449590;26;19999;-75
2024/04/23 07:17:26;;;;;;;23.38;18.05;;;563.90;1817.60;;;;;;5448131;26;20022;-76
2024/04/23 07:19:52;;;;;;;24.08;21.08;;;589.70;1740.80;;;;;;5448710;26;20348;-75
2024/04/23 07:22:18;;;;;;;18.15;15.70;;;614.80;1664.00;;;;;;5448322;26;19995;-76
2024/04/23 07:24:44;;;;;;;18.90;16.90;;;615.00;1638.40;;;;;;5448998;26;20006;-76
2024/04/23 07:27:10;;;;;;;23.85;21.48;;;640.00;1587.20;;;;;;5448044;26;20003;-75
2024/04/23 07:29:35;;;;;;;25.67;21.77;;;640.20;1561.60;;;;;;5447708;26;20366;-76
2024/04/23 07:32:02;;;;;;;22.55;20.23;;;640.10;1561.60;;;;;;5448050;26;20003;-76
2024/04/23 07:34:27;;;;;;;24.58;21.40;;;615.30;1561.60;;;;;;5448419;26;20010;-75
2024/04/23 07:36:53;;;;;;;23.58;21.17;;;614.70;1587.20;;;;;;5447285;26;20002;-76
2024/04/23 07:39:19;;;;;;;25.75;22.38;;;615.10;1587.20;;;;;;5448547;26;20011;-76
2024/04/23 07:41:45;;;;;;;22.35;19.98;;;640.50;1536.00;;;;;;5447620;26;20002;-77
2024/04/23 07:44:11;;;;;;;25.15;20.67;;;640.50;1561.60;;;;;;5448603;26;20011;-76
2024/04/23 07:46:37;;;;;;;26.08;21.40;;;615.10;1587.20;;;;;;5447184;26;20503;-76
2024/04/23 07:49:03;;;;;;;21.45;19.27;;;589.60;1664.00;;;;;;5427014;26;20003;-76
2024/04/23 07:51:32;;;;;;;21.20;18.90;;;588.80;1740.80;;;;;;5447789;26;20406;-77
2024/04/23 07:53:58;;;;;;;24.27;20.00;;;563.60;1766.40;;;;;;5447925;26;19995;-75
2024/04/23 07:56:23;;;;;;;24.70;20.58;;;563.20;1817.60;;;;;;5447951;26;20003;-75
2024/04/23 07:58:49;;;;;;;24.10;21.05;;;564.00;1792.00;;;;;;5447797;26;20023;-74
2024/04/23 08:01:15;;;;;;;24.80;22.10;;;563.30;1843.20;;;;;;5447939;26;20003;-74
2024/04/23 08:03:41;;;;;;;34.75;24.65;;;537.90;1894.40;;;;;;5417375;26;20005;-74
2024/04/23 08:06:07;;;;;;;31.10;22.13;;;538.40;1843.20;;;;;;5448113;26;20351;-74
2024/04/23 08:08:32;;;;;;;24.35;18.17;;;588.90;1766.40;;;;;;5447990;26;20133;-74
2024/04/23 08:11:00;;;;;;;60.80;44.00;;;589.30;1740.80;;;;;;5447809;26;20003;-75
2024/04/23 08:13:27;;;;;;;23.55;14.98;;;665.70;1638.40;;;;;;5446739;26;20013;-75
2024/04/23 08:15:57;;;;;;;26.42;18.48;;;666.20;1587.20;;;;;;5448450;26;19998;-74
2024/04/23 08:18:22;;;;;;;12.73;9.55;;;717.10;1510.40;;;;;;5447619;26;20021;-74
2024/04/23 08:20:48;;;;;;;39.40;25.75;;;666.30;1536.00;;;;;;5448053;26;19999;-74
2024/04/23 08:23:14;;;;;;;18.00;15.60;;;691.60;1536.00;;;;;;5447810;26;19999;-74
2024/04/23 08:25:40;;;;;;;19.98;13.75;;;666.50;1536.00;;;;;;5448041;26;20017;-74
2024/04/23 08:28:06;;;;;;;11.35;10.13;;;666.30;1536.00;;;;;;5446607;26;19998;-75
2024/04/23 08:30:32;;;;;;;13.05;10.85;;;640.20;1612.80;;;;;;5448152;26;20067;-74
2024/04/23 08:32:58;;;;;;;12.73;8.55;;;615.10;1612.80;;;;;;5446809;26;19999;-79
2024/04/23 08:35:24;;;;;;;19.50;9.70;;;588.80;1740.80;;;;;;5416053;26;20461;-74
2024/04/23 08:37:50;;;;;;;19.58;11.63;;;564.10;1715.20;;;;;;5447940;26;20047;-75
2024/04/23 08:40:16;;;;;;;18.05;13.65;;;563.70;1740.80;;;;;;5448576;26;19998;-74
2024/04/23 08:42:44;;;;;;;17.95;10.80;;;563.40;1792.00;;;;;;5447557;26;20009;-74
2024/04/23 08:45:11;;;;;;;25.15;22.33;;;538.50;1792.00;;;;;;5447980;26;19998;-74
2024/04/23 08:47:37;;;;;;;18.77;10.88;;;538.50;1792.00;;;;;;5447181;26;20013;-77
2024/04/23 08:50:04;;;;;;;57.55;33.38;;;512.80;1843.20;;;;;;5447890;26;20010;-78
2024/04/23 08:52:30;;;;;;;51.40;24.20;;;537.90;1843.20;;;;;;5447465;26;19995;-75
2024/04/23 08:54:56;;;;;;;17.95;13.73;;;537.60;1868.80;;;;;;5448026;26;19994;-75
2024/04/23 08:57:23;;;;;;;14.82;10.60;;;537.60;1868.80;;;;;;5441621;26;19998;-74
2024/04/23 08:59:49;;;;;;;15.48;11.55;;;538.00;1868.80;;;;;;5448931;26;19998;-76
2024/04/23 09:02:42;;;;;;;16.42;13.13;;;487.30;1894.40;;;;;;5448955;26;20010;-74
2024/04/23 09:05:11;;;;;;;26.35;20.08;;;487.30;1920.00;;;;;;5430777;26;20031;-74
2024/04/23 09:07:37;;;;;;;12.43;9.85;;;487.30;1894.40;;;;;;5424896;26;20073;-74
2024/04/23 09:10:05;;;;;;;15.75;10.15;;;486.70;1945.60;;;;;;5448842;26;20026;-73
2024/04/23 09:12:31;;;;;;;15.23;11.60;;;486.50;1971.20;;;;;;5463928;26;19995;-78
2024/04/23 09:14:58;;;;;;;20.85;11.68;;;486.70;1945.60;;;;;;5467170;26;19994;-78
2024/04/23 09:17:24;;;;;;;10.82;8.40;;;486.70;1971.20;;;;;;5475500;26;20030;-79
2024/04/23 09:19:50;;;;;;;22.17;12.88;;;486.80;1945.60;;;;;;5461369;26;20013;-79
2024/04/23 09:22:17;;;;;;;19.70;11.98;;;486.80;1945.60;;;;;;5454115;26;20011;-74
2024/04/23 09:24:43;;;;;;;14.25;10.45;;;461.70;1996.80;;;;;;5453594;26;20002;-78
2024/04/23 09:27:09;;;;;;;19.77;14.73;;;486.40;1996.80;;;;;;5449562;26;20022;-74
2024/04/23 09:29:35;;;;;;;20.88;15.70;;;486.40;2022.40;;;;;;5449626;26;19994;-77
2024/04/23 09:32:02;;;;;;;23.80;15.80;;;486.60;1996.80;;;;;;5447709;26;19994;-73
2024/04/23 09:34:29;;;;;;;18.55;12.98;;;486.50;2022.40;;;;;;5451846;26;19991;-75
2024/04/23 09:36:55;;;;;;;25.58;16.55;;;486.60;1996.80;;;;;;5421244;26;19995;-75
2024/04/23 09:39:21;;;;;;;14.60;11.65;;;486.70;1996.80;;;;;;5453862;26;20336;-77
2024/04/23 09:45:09;;;;;;;30.02;16.88;;;486.70;2022.40;;;;;;5453639;26;20005;-74
2024/04/23 09:47:43;;;;;;;15.27;10.90;;;486.70;2022.40;;;;;;5454006;26;19995;-74
2024/04/23 09:50:11;;;;;;;21.20;14.43;;;486.90;2022.40;;;;;;5453604;26;20449;-78
2024/04/23 09:52:38;;;;;;;19.05;12.15;;;487.20;1996.80;;;;;;5453582;26;19999;-74
2024/04/23 09:55:06;;;;;;;15.13;12.45;;;486.90;1996.80;;;;;;5421398;26;20324;-75
2024/04/23 10:01:08;;;;;;;11.75;9.57;;;486.40;2048.00;;;;;;5439507;26;20501;-77
2024/04/23 10:03:38;;;;;;;21.08;16.33;;;461.20;2099.20;;;;;;5453347;26;20480;-74
2024/04/23 10:06:10;;;;;;;32.70;22.70;;;461.30;2099.20;;;;;;5453368;26;20026;-74
2024/04/23 10:09:16;;;;;;;32.65;18.92;;;461.30;2099.20;;;;;;5453363;26;20436;-75
2024/04/23 10:18:55;;;;;;;22.25;12.70;;;461.60;2099.20;;;;;;5334506;26;20028;-76
2024/04/23 10:21:25;;;;;;;19.33;13.88;;;461.40;2099.20;;;;;;5336162;26;20115;-78
2024/04/23 10:23:54;;;;;;;19.00;16.55;;;461.50;2124.80;;;;;;5344132;26;20052;-76
2024/04/23 10:26:24;;;;;;;30.08;21.90;;;461.70;2099.20;;;;;;5344207;26;19997;-74
2024/04/23 10:28:51;;;;;;;26.50;17.73;;;461.30;2150.40;;;;;;5329572;26;20001;-75
2024/04/23 10:31:18;;;;;;;26.95;20.38;;;461.50;2124.80;;;;;;5344101;26;20074;-78
2024/04/23 10:33:48;;;;;;;21.70;18.95;;;486.40;2124.80;;;;;;5343996;26;19997;-74
2024/04/23 10:36:14;;;;;;;25.52;18.13;;;461.60;2124.80;;;;;;5344222;26;20365;-74
2024/04/23 10:38:43;;;;;;;18.13;13.95;;;461.60;2124.80;;;;;;5344019;26;20066;-77
2024/04/23 10:41:11;;;;;;;17.45;13.88;;;461.60;2124.80;;;;;;5345201;26;20011;-74
2024/04/23 10:43:39;;;;;;;21.35;16.38;;;486.40;2099.20;;;;;;5344451;26;19989;-74
2024/04/23 10:46:06;;;;;;;18.50;13.32;;;486.40;2099.20;;;;;;5419822;26;20127;-75
2024/04/23 10:48:37;;;;;;;24.25;16.58;;;461.40;2124.80;;;;;;5454684;26;20001;-77
2024/04/23 10:51:04;;;;;;;27.55;17.77;;;461.40;2150.40;;;;;;5452862;26;19999;-77
2024/04/23 10:53:34;;;;;;;22.40;13.40;;;461.10;2201.60;;;;;;5445893;26;20452;-73
2024/04/23 10:56:00;;;;;;;18.15;13.80;;;461.20;2176.00;;;;;;5447638;26;20010;-73
2024/04/23 10:58:26;;;;;;;20.20;14.85;;;461.40;2176.00;;;;;;5445618;26;20010;-75
2024/04/23 11:01:02;;;;;;;22.92;14.13;;;461.30;2176.00;;;;;;5447419;26;20052;-73
2024/04/23 11:03:29;;;;;;;14.02;12.57;;;461.00;2201.60;;;;;;5446503;26;20047;-76
2024/04/23 11:05:55;;;;;;;17.05;11.35;;;460.90;2227.20;;;;;;5447354;26;20014;-74
2024/04/23 11:08:27;;;;;;;26.33;19.58;;;435.80;2252.80;;;;;;5446079;26;20354;-77
2024/04/23 11:11:04;;;;;;;24.45;18.02;;;435.50;2304.00;;;;;;5446760;26;20361;-76
2024/04/23 11:13:36;;;;;;;24.90;17.48;;;435.80;2278.40;;;;;;5423672;26;20049;-77
2024/04/23 11:16:18;;;;;;;18.85;13.13;;;435.50;2304.00;;;;;;5446707;26;20010;-78
2024/04/23 11:18:48;;;;;;;19.77;14.70;;;435.40;2304.00;;;;;;5457396;26;20010;-73
2024/04/23 11:21:26;;;;;;;24.67;17.67;;;410.50;2355.20;;;;;;5446700;26;20075;-73
2024/04/23 11:23:53;;;;;;;32.08;24.05;;;435.20;2355.20;;;;;;5446997;26;20321;-77
2024/04/23 11:26:22;;;;;;;22.75;17.40;;;435.30;2355.20;;;;;;5446442;26;19998;-79
2024/04/23 11:28:49;;;;;;;24.15;16.75;;;410.50;2355.20;;;;;;5448530;26;20451;-79
2024/04/23 11:31:16;;;;;;;19.20;14.60;;;435.20;2355.20;;;;;;5448914;26;20056;-77
2024/04/23 11:33:42;;;;;;;15.55;12.88;;;410.50;2355.20;;;;;;5449083;26;20444;-77
2024/04/23 11:36:09;;;;;;;21.95;17.58;;;435.30;2355.20;;;;;;5448261;26;19999;-78
2024/04/23 11:38:39;;;;;;;27.45;18.10;;;410.20;2355.20;;;;;;5447787;26;20076;-78
2024/04/23 11:41:11;;;;;;;17.98;15.55;;;410.50;2355.20;;;;;;5468792;26;20006;-75
2024/04/23 11:43:38;;;;;;;18.67;13.98;;;410.40;2355.20;;;;;;5445959;26;20003;-74
2024/04/23 11:46:06;;;;;;;20.20;14.40;;;435.20;2355.20;;;;;;5417146;26;20327;-77
2024/04/23 11:48:33;;;;;;;16.10;11.45;;;435.30;2355.20;;;;;;5450034;26;20009;-73
2024/04/23 11:51:00;;;;;;;18.42;13.43;;;435.30;2355.20;;;;;;5448967;26;19999;-73
2024/04/23 11:53:26;;;;;;;17.92;11.20;;;435.60;2355.20;;;;;;5450574;26;20010;-74
2024/04/23 11:55:52;;;;;;;15.82;12.45;;;435.30;2355.20;;;;;;5450114;26;19998;-76
2024/04/23 11:58:18;;;;;;;16.42;12.45;;;435.50;2355.20;;;;;;5449882;26;20006;-78
2024/04/23 12:00:45;;;;;;;23.65;15.70;;;435.50;2355.20;;;;;;5449572;26;19998;-76
2024/04/23 12:03:10;;;;;;;17.52;11.93;;;435.40;2355.20;;;;;;5450001;26;20009;-74
2024/04/23 12:05:37;;;;;;;19.00;11.40;;;435.60;2355.20;;;;;;5449216;26;19995;-76
2024/04/23 12:08:03;;;;;;;16.25;12.38;;;435.20;2355.20;;;;;;5450325;26;20011;-78
2024/04/23 12:10:36;;;;;;;22.67;16.30;;;435.30;2355.20;;;;;;5449656;26;20334;-77
2024/04/23 12:13:03;;;;;;;12.75;8.85;;;435.50;2355.20;;;;;;5449927;26;20019;-73
2024/04/23 12:15:30;;;;;;;11.27;7.75;;;435.60;2355.20;;;;;;5447423;26;20328;-72
2024/04/23 12:17:56;;;;;;;20.27;8.85;;;435.20;2355.20;;;;;;5446473;26;19991;-75
2024/04/23 12:20:23;;;;;;;15.25;12.05;;;435.40;2355.20;;;;;;5446734;26;20038;-76
2024/04/23 12:22:50;;;;;;;38.60;28.85;;;435.60;2355.20;;;;;;5444101;26;19998;-77